Time;durP1;ratioP1;P1;durP2;ratioP2;P2;SDS_P1;SDS_P2;PMS_P1;PMS_P2;Temp;Humidity;BMP_temperature;BMP_pressure;BME280_temperature;BME280_humidity;BME280_pressure;Samples;Min_cycle;Max_cycle;Signal;HPM_P1;HPM_P2
2022/01/31 00:01:58;;;;;;;30.70;14.97;;;;;;;4.02;87.71;101252.00;5053098;28;20450;-44
2022/01/31 00:04:25;;;;;;;21.80;12.73;;;;;;;4.02;87.75;101238.81;5052893;28;20443;-45
2022/01/31 00:06:54;;;;;;;18.07;14.53;;;;;;;3.98;88.65;101226.88;5052276;28;20466;-46
2022/01/31 00:09:23;;;;;;;28.90;13.80;;;;;;;3.98;88.64;101213.69;5052444;28;20533;-44
2022/01/31 00:11:58;;;;;;;25.40;14.73;;;;;;;3.97;88.81;101200.66;5052588;28;20936;-46
2022/01/31 00:14:33;;;;;;;33.93;14.77;;;;;;;3.95;89.43;101189.38;5052882;28;20419;-46
2022/01/31 00:17:02;;;;;;;26.47;14.93;;;;;;;3.94;89.73;101182.47;5052218;28;20832;-49
2022/01/31 00:19:29;;;;;;;35.20;16.17;;;;;;;3.93;90.10;101165.78;5052300;28;20447;-44
2022/01/31 00:21:59;;;;;;;28.50;16.13;;;;;;;3.93;90.19;101152.59;5052522;28;20443;-46
2022/01/31 00:24:27;;;;;;;37.30;17.97;;;;;;;3.94;90.16;101140.25;5052773;28;20415;-43
2022/01/31 00:26:55;;;;;;;24.53;16.73;;;;;;;3.91;90.19;101136.09;5052049;28;20467;-44
2022/01/31 00:29:23;;;;;;;28.20;17.50;;;;;;;3.90;90.00;101129.13;5052161;28;20502;-45
2022/01/31 00:31:51;;;;;;;28.60;18.23;;;;;;;3.86;90.34;101122.47;5052427;28;20443;-45
2022/01/31 00:34:18;;;;;;;31.00;18.07;;;;;;;3.83;91.26;101113.06;5052400;28;20477;-45
2022/01/31 00:36:46;;;;;;;32.93;17.40;;;;;;;3.80;91.34;101096.66;5051622;28;20452;-43
2022/01/31 00:39:15;;;;;;;26.43;18.70;;;;;;;3.79;91.33;101093.19;5052208;28;20797;-44
2022/01/31 00:41:43;;;;;;;33.50;20.40;;;;;;;3.76;92.15;101085.56;5052392;28;20436;-49
2022/01/31 00:44:16;;;;;;;31.57;19.20;;;;;;;3.73;92.73;101083.22;5045141;28;20434;-45
2022/01/31 00:46:51;;;;;;;35.27;18.17;;;;;;;3.70;93.42;101072.16;5043482;28;20460;-51
2022/01/31 00:49:35;;;;;;;31.60;19.03;;;;;;;3.68;93.72;101059.09;5051604;28;20483;-43
2022/01/31 00:52:04;;;;;;;35.40;19.47;;;;;;;3.68;93.84;101045.91;5052229;28;20442;-47
2022/01/31 00:54:33;;;;;;;33.30;19.87;;;;;;;3.69;94.13;101033.56;5052105;28;20438;-48
2022/01/31 00:57:01;;;;;;;31.30;19.53;;;;;;;3.69;94.03;101029.13;5051228;28;20460;-44
2022/01/31 00:59:28;;;;;;;38.77;20.13;;;;;;;3.69;93.84;101018.56;5051375;28;20481;-44
2022/01/31 01:01:56;;;;;;;32.10;20.37;;;;;;;3.67;94.07;101022.34;5051925;28;20808;-43
2022/01/31 01:04:23;;;;;;;33.10;20.47;;;;;;;3.66;94.22;101023.28;5046678;28;20441;-44
2022/01/31 01:06:51;;;;;;;35.40;20.83;;;;;;;3.63;93.84;101023.59;5031039;28;20456;-44
2022/01/31 01:09:19;;;;;;;27.27;20.50;;;;;;;3.64;94.46;101017.34;5039377;28;20476;-47
2022/01/31 01:11:47;;;;;;;35.43;22.27;;;;;;;3.65;94.00;101011.91;5048362;28;20443;-43
2022/01/31 01:14:15;;;;;;;28.57;19.60;;;;;;;3.64;94.25;101004.16;5051608;28;20432;-46
2022/01/31 01:16:43;;;;;;;37.17;22.07;;;;;;;3.61;94.07;100997.38;5051427;28;20467;-44
2022/01/31 01:19:11;;;;;;;30.70;20.17;;;;;;;3.58;94.08;100996.84;5051525;28;20428;-48
2022/01/31 01:21:38;;;;;;;45.60;23.77;;;;;;;3.59;94.27;100974.75;5051795;28;20435;-45
2022/01/31 01:24:06;;;;;;;26.90;20.47;;;;;;;3.57;94.36;100974.06;5051722;28;20442;-43
2022/01/31 01:26:34;;;;;;;57.03;21.70;;;;;;;3.60;93.90;100956.16;5051008;28;20521;-46
2022/01/31 01:29:03;;;;;;;31.50;20.27;;;;;;;3.61;93.44;100956.97;5051407;28;20431;-44
2022/01/31 01:31:31;;;;;;;33.47;19.50;;;;;;;3.59;93.60;100951.84;5051678;28;20439;-51
2022/01/31 01:33:59;;;;;;;37.03;19.87;;;;;;;3.56;93.37;100944.22;5051687;28;20501;-44
2022/01/31 01:36:27;;;;;;;41.80;20.80;;;;;;;3.55;93.18;100947.84;5051159;28;20455;-44
2022/01/31 01:38:54;;;;;;;30.30;19.10;;;;;;;3.54;93.18;100933.00;5051342;28;20439;-46
2022/01/31 01:41:22;;;;;;;40.53;20.67;;;;;;;3.56;92.93;100946.84;5051303;28;20477;-45
2022/01/31 01:43:50;;;;;;;25.53;19.93;;;;;;;3.52;93.02;100942.88;5044343;28;20436;-44
2022/01/31 01:46:19;;;;;;;21.00;18.80;;;;;;;3.49;93.10;100942.34;5042759;28;20427;-43
2022/01/31 01:48:47;;;;;;;26.77;19.07;;;;;;;3.41;93.11;100935.13;5051343;28;20485;-44
2022/01/31 01:51:15;;;;;;;26.07;20.90;;;;;;;3.37;93.35;100943.50;5051316;28;20486;-46
2022/01/31 01:53:42;;;;;;;42.03;22.23;;;;;;;3.31;93.86;100934.38;5051323;28;20518;-46
2022/01/31 01:56:10;;;;;;;28.63;21.27;;;;;;;3.32;94.02;100926.28;5050909;28;21115;-44
2022/01/31 01:58:40;;;;;;;35.40;22.40;;;;;;;3.21;94.53;100915.94;5051273;28;20431;-45
2022/01/31 02:01:09;;;;;;;25.90;21.20;;;;;;;3.17;94.91;100919.00;5051239;28;20455;-45
2022/01/31 02:03:40;;;;;;;26.03;20.53;;;;;;;3.12;95.01;100910.72;5051411;28;20812;-45
2022/01/31 02:06:08;;;;;;;34.47;21.60;;;;;;;3.04;95.35;100897.44;5050768;28;20432;-44
2022/01/31 02:08:40;;;;;;;32.53;21.47;;;;;;;3.07;95.51;100897.16;5050945;28;20788;-48
2022/01/31 02:11:09;;;;;;;25.80;21.00;;;;;;;3.03;95.82;100882.59;5054135;28;21002;-44
2022/01/31 02:13:38;;;;;;;24.20;20.97;;;;;;;2.99;95.94;100871.50;5054994;28;20435;-46
2022/01/31 02:16:07;;;;;;;30.93;22.43;;;;;;;3.01;95.71;100863.47;5054539;28;20435;-45
2022/01/31 02:18:41;;;;;;;26.50;20.07;;;;;;;2.96;95.82;100857.78;5054838;28;20531;-44
2022/01/31 02:21:10;;;;;;;28.90;20.57;;;;;;;2.96;95.88;100848.09;5054801;28;20442;-45
2022/01/31 02:23:38;;;;;;;21.60;19.60;;;;;;;2.97;95.74;100844.50;5055070;28;20432;-49
2022/01/31 02:26:07;;;;;;;23.73;19.60;;;;;;;2.96;95.91;100834.91;5054301;28;20431;-45
2022/01/31 02:28:37;;;;;;;28.27;19.87;;;;;;;2.97;96.26;100814.69;5054659;28;20438;-45
2022/01/31 02:31:06;;;;;;;27.53;21.13;;;;;;;2.93;95.90;100813.34;5054620;28;20481;-43
2022/01/31 02:33:34;;;;;;;23.90;20.43;;;;;;;2.94;95.79;100805.28;5054629;28;20435;-44
2022/01/31 02:36:05;;;;;;;23.53;20.27;;;;;;;2.96;96.07;100792.78;5054293;28;20446;-46
2022/01/31 02:38:34;;;;;;;35.20;21.50;;;;;;;2.97;95.98;100789.16;5054505;28;20438;-48
2022/01/31 02:41:02;;;;;;;28.87;22.00;;;;;;;2.95;95.64;100779.75;5054455;28;20443;-43
2022/01/31 02:43:31;;;;;;;24.10;20.60;;;;;;;2.96;95.99;100773.50;5049848;28;20440;-46
2022/01/31 02:46:00;;;;;;;28.40;23.47;;;;;;;2.95;95.97;100751.63;5044358;28;20948;-46
2022/01/31 02:48:31;;;;;;;33.50;23.23;;;;;;;2.93;95.63;100739.59;5054027;28;20789;-46
2022/01/31 02:50:59;;;;;;;25.07;22.30;;;;;;;2.90;95.76;100719.59;5054372;28;20928;-45
2022/01/31 02:53:29;;;;;;;26.40;24.20;;;;;;;2.89;95.86;100720.59;5054458;28;20439;-43
2022/01/31 02:56:00;;;;;;;29.37;23.10;;;;;;;2.87;95.79;100708.56;5054263;28;20423;-46
2022/01/31 02:58:29;;;;;;;31.97;23.10;;;;;;;2.86;95.59;100706.91;5053564;28;20450;-45
2022/01/31 03:00:58;;;;;;;28.23;23.23;;;;;;;2.86;95.84;100696.38;5053993;28;20459;-46
2022/01/31 03:03:28;;;;;;;27.03;24.00;;;;;;;2.85;96.03;100686.78;5054271;28;20432;-43
2022/01/31 03:05:55;;;;;;;39.33;24.00;;;;;;;2.84;96.38;100680.69;5045664;28;20428;-43
2022/01/31 03:08:24;;;;;;;31.43;25.00;;;;;;;2.83;96.14;100665.88;5034103;28;20464;-45
2022/01/31 03:10:52;;;;;;;32.40;24.33;;;;;;;2.83;95.89;100658.00;5035155;28;20472;-44
2022/01/31 03:13:21;;;;;;;32.80;25.33;;;;;;;2.81;95.97;100656.50;5035331;28;20954;-43
2022/01/31 03:15:51;;;;;;;46.03;24.17;;;;;;;2.80;96.24;100647.75;5035408;28;20428;-46
2022/01/31 03:18:19;;;;;;;29.23;26.30;;;;;;;2.78;95.93;100650.50;5038230;28;20988;-44
2022/01/31 03:20:47;;;;;;;26.17;24.10;;;;;;;2.80;96.27;100634.59;5044920;28;20447;-44
2022/01/31 03:23:14;;;;;;;37.00;24.90;;;;;;;2.79;96.18;100617.13;5053725;28;20937;-46
2022/01/31 03:25:42;;;;;;;42.23;24.73;;;;;;;2.78;96.03;100599.66;5053692;28;20806;-44
2022/01/31 03:28:09;;;;;;;29.90;23.40;;;;;;;2.78;96.33;100595.22;5052906;28;20533;-46
2022/01/31 03:30:38;;;;;;;29.47;24.23;;;;;;;2.77;96.42;100582.22;5053594;28;20835;-44
2022/01/31 03:33:06;;;;;;;28.00;25.27;;;;;;;2.69;96.56;100574.22;5053560;28;20469;-45
2022/01/31 03:35:33;;;;;;;38.03;24.73;;;;;;;2.70;96.45;100578.53;5053520;28;20436;-47
2022/01/31 03:38:01;;;;;;;28.83;23.40;;;;;;;2.65;96.48;100567.63;5052633;28;20996;-47
2022/01/31 03:40:29;;;;;;;30.40;26.87;;;;;;;2.66;96.69;100553.47;5053439;28;20447;-47
2022/01/31 03:42:56;;;;;;;27.40;24.50;;;;;;;2.64;96.40;100550.16;5053390;28;20423;-46
2022/01/31 03:45:24;;;;;;;29.50;25.07;;;;;;;2.58;96.46;100541.06;5041545;28;20435;-44
2022/01/31 03:47:53;;;;;;;36.20;25.90;;;;;;;2.56;96.41;100531.66;5049895;28;20463;-43
2022/01/31 03:50:21;;;;;;;30.83;26.80;;;;;;;2.57;96.56;100528.06;5052970;28;20444;-46
2022/01/31 03:52:52;;;;;;;28.67;25.10;;;;;;;2.57;96.30;100528.88;5053116;28;20447;-46
2022/01/31 03:55:21;;;;;;;28.07;25.30;;;;;;;2.56;96.04;100531.66;5053265;28;20798;-44
2022/01/31 03:57:49;;;;;;;27.27;24.47;;;;;;;2.56;96.75;100515.88;5052412;28;20829;-44
2022/01/31 04:00:18;;;;;;;30.67;25.10;;;;;;;2.53;96.33;100501.22;5052883;28;20470;-45
2022/01/31 04:02:46;;;;;;;29.20;26.10;;;;;;;2.52;96.29;100494.28;5052961;28;20493;-45
2022/01/31 04:05:15;;;;;;;34.33;26.03;;;;;;;2.49;96.38;100488.47;5052822;28;20431;-47
2022/01/31 04:07:43;;;;;;;37.87;25.57;;;;;;;2.44;96.44;100475.78;5052172;28;20463;-44
2022/01/31 04:10:11;;;;;;;27.57;24.93;;;;;;;2.46;96.33;100460.66;5052849;28;20448;-46
2022/01/31 04:12:38;;;;;;;28.40;24.20;;;;;;;2.45;96.36;100452.94;5052823;28;20498;-46
2022/01/31 04:15:07;;;;;;;26.73;23.97;;;;;;;2.45;96.55;100437.16;5052790;28;20785;-44
2022/01/31 04:17:36;;;;;;;26.13;23.73;;;;;;;2.41;96.29;100426.09;5051841;28;20836;-45
2022/01/31 04:20:07;;;;;;;31.83;25.03;;;;;;;2.41;96.25;100426.09;5052959;28;20474;-49
2022/01/31 04:22:39;;;;;;;37.50;25.27;;;;;;;2.37;96.53;100422.09;5041714;28;20436;-44
2022/01/31 04:25:17;;;;;;;30.87;23.77;;;;;;;2.39;96.23;100420.13;5035361;28;20435;-48
2022/01/31 04:27:50;;;;;;;29.93;24.97;;;;;;;2.38;96.23;100413.25;5033128;28;20464;-47
2022/01/31 04:30:18;;;;;;;26.90;24.37;;;;;;;2.36;96.46;100407.28;5033559;28;20452;-44
2022/01/31 04:32:45;;;;;;;34.53;25.33;;;;;;;2.31;96.62;100396.41;5032995;28;20473;-47
2022/01/31 04:35:13;;;;;;;31.90;25.73;;;;;;;2.29;96.48;100390.47;5033731;28;20439;-43
2022/01/31 04:37:42;;;;;;;32.57;24.00;;;;;;;2.29;96.43;100389.63;5033362;28;20464;-47
2022/01/31 04:40:13;;;;;;;33.43;26.00;;;;;;;2.26;96.58;100382.88;5035365;28;20447;-48
2022/01/31 04:42:43;;;;;;;35.33;27.30;;;;;;;2.20;96.34;100358.00;5032385;28;20440;-45
2022/01/31 04:45:11;;;;;;;32.83;25.10;;;;;;;2.20;96.72;100363.28;5035292;28;20431;-46
2022/01/31 04:47:39;;;;;;;28.47;24.80;;;;;;;2.12;96.54;100355.28;5033011;28;20464;-44
2022/01/31 04:50:08;;;;;;;28.47;25.90;;;;;;;2.08;96.72;100348.69;5035006;28;20471;-43
2022/01/31 04:52:38;;;;;;;28.97;23.30;;;;;;;2.03;96.62;100348.31;5039536;28;20478;-44
2022/01/31 04:55:09;;;;;;;28.47;25.43;;;;;;;2.02;96.51;100353.72;5043551;28;20428;-44
2022/01/31 04:57:36;;;;;;;30.07;24.60;;;;;;;2.01;96.49;100345.00;5051062;28;20467;-43
2022/01/31 05:00:07;;;;;;;37.77;28.30;;;;;;;1.97;96.69;100343.66;5051795;28;20466;-47
2022/01/31 05:02:35;;;;;;;32.63;25.60;;;;;;;2.00;96.48;100339.91;5051923;28;20432;-45
2022/01/31 05:05:04;;;;;;;29.30;26.97;;;;;;;1.98;96.54;100341.84;5050388;28;21154;-43
2022/01/31 05:07:33;;;;;;;33.00;27.43;;;;;;;1.95;96.34;100334.25;5050947;28;20467;-43
2022/01/31 05:10:00;;;;;;;36.00;26.33;;;;;;;1.93;96.24;100338.84;5051941;28;20482;-46
2022/01/31 05:12:29;;;;;;;30.90;27.80;;;;;;;1.89;96.45;100334.88;5051759;28;20498;-44
2022/01/31 05:14:57;;;;;;;33.17;28.63;;;;;;;1.93;95.75;100325.72;5051579;28;20431;-44
2022/01/31 05:17:24;;;;;;;43.77;29.43;;;;;;;1.94;96.43;100327.38;5050831;28;20467;-46
2022/01/31 05:19:52;;;;;;;29.33;26.73;;;;;;;1.94;96.29;100327.38;5051518;28;20454;-43
2022/01/31 05:22:19;;;;;;;30.60;27.60;;;;;;;1.95;95.93;100329.00;5051393;28;20439;-43
2022/01/31 05:24:47;;;;;;;36.00;27.40;;;;;;;1.93;96.26;100313.41;5051668;28;20435;-44
2022/01/31 05:27:15;;;;;;;32.70;27.77;;;;;;;1.94;96.04;100304.50;5050771;28;20471;-44
2022/01/31 05:29:43;;;;;;;34.00;28.87;;;;;;;1.92;96.44;100293.31;5051940;28;20459;-43
2022/01/31 05:32:11;;;;;;;38.50;29.03;;;;;;;1.93;96.32;100288.91;5051461;28;20501;-44
2022/01/31 05:34:39;;;;;;;34.23;28.40;;;;;;;1.90;95.99;100294.47;5051275;28;20483;-45
2022/01/31 05:37:06;;;;;;;30.87;27.83;;;;;;;1.92;96.01;100289.88;5050921;28;20474;-44
2022/01/31 05:39:34;;;;;;;46.90;31.87;;;;;;;1.91;95.88;100286.41;5051310;28;20451;-43
2022/01/31 05:42:02;;;;;;;33.13;29.47;;;;;;;1.91;96.12;100288.22;5051533;28;20427;-43
2022/01/31 05:44:29;;;;;;;36.63;30.63;;;;;;;1.96;95.66;100288.59;5046804;28;20438;-44
2022/01/31 05:47:00;;;;;;;41.80;31.10;;;;;;;1.96;95.57;100280.69;5046557;28;20459;-44
2022/01/31 05:49:30;;;;;;;39.37;30.60;;;;;;;1.95;96.22;100284.31;5055070;28;20807;-45
2022/01/31 05:52:03;;;;;;;32.70;29.40;;;;;;;1.93;95.85;100279.22;5055388;28;20482;-43
2022/01/31 05:54:32;;;;;;;43.53;30.00;;;;;;;1.95;95.41;100290.38;5055413;28;20800;-46
2022/01/31 05:57:01;;;;;;;35.87;29.23;;;;;;;1.95;95.60;100292.19;5054800;28;20459;-44
2022/01/31 05:59:28;;;;;;;39.90;30.37;;;;;;;1.99;95.45;100288.28;5054811;28;20471;-45
2022/01/31 06:01:58;;;;;;;34.70;31.03;;;;;;;2.01;95.57;100288.94;5055332;28;20446;-45
2022/01/31 06:04:27;;;;;;;33.90;31.00;;;;;;;2.02;95.75;100290.63;5055189;28;20431;-44
2022/01/31 06:06:55;;;;;;;34.73;31.37;;;;;;;2.01;95.57;100288.94;5054539;28;20470;-43
2022/01/31 06:09:22;;;;;;;34.57;30.33;;;;;;;2.03;95.53;100287.00;5054707;28;20437;-45
2022/01/31 06:11:50;;;;;;;45.47;32.07;;;;;;;2.01;95.40;100286.31;5054962;28;20896;-45
2022/01/31 06:14:18;;;;;;;34.83;30.83;;;;;;;1.96;95.79;100276.28;5054805;28;20808;-46
2022/01/31 06:16:46;;;;;;;36.30;32.40;;;;;;;1.95;95.81;100273.78;5054684;28;20821;-46
2022/01/31 06:19:14;;;;;;;33.77;30.50;;;;;;;1.93;95.25;100275.75;5054702;28;20867;-43
2022/01/31 06:21:43;;;;;;;36.67;32.77;;;;;;;1.94;95.78;100274.78;5054814;28;20436;-45
2022/01/31 06:24:13;;;;;;;33.53;30.57;;;;;;;1.97;95.39;100271.84;5054754;28;20466;-44
2022/01/31 06:26:42;;;;;;;37.77;31.47;;;;;;;1.99;95.13;100254.94;5054084;28;20459;-44
2022/01/31 06:29:10;;;;;;;43.10;31.03;;;;;;;1.98;95.33;100252.44;5054569;28;20427;-44
2022/01/31 06:31:38;;;;;;;32.27;28.80;;;;;;;1.99;95.12;100251.47;5054638;28;20442;-44
2022/01/31 06:34:06;;;;;;;48.00;32.50;;;;;;;1.93;95.35;100250.28;5054385;28;20471;-45
2022/01/31 06:36:33;;;;;;;33.13;30.03;;;;;;;1.98;95.18;100247.19;5053859;28;20993;-44
2022/01/31 06:39:04;;;;;;;32.63;30.00;;;;;;;2.00;95.34;100235.53;5054174;28;20424;-43
2022/01/31 06:41:31;;;;;;;37.97;32.73;;;;;;;1.99;95.07;100243.59;5054306;28;20439;-44
2022/01/31 06:43:59;;;;;;;39.63;32.87;;;;;;;2.02;95.41;100251.16;5047311;28;20432;-43
2022/01/31 06:46:27;;;;;;;35.40;31.80;;;;;;;2.03;95.43;100245.75;5045390;28;20455;-44
2022/01/31 06:48:54;;;;;;;42.40;30.70;;;;;;;2.03;94.94;100240.47;5054135;28;20436;-43
2022/01/31 06:51:22;;;;;;;37.60;33.37;;;;;;;2.03;95.21;100244.94;5054068;28;20455;-45
2022/01/31 06:53:55;;;;;;;41.07;33.77;;;;;;;2.07;94.97;100254.16;5053997;28;20570;-43
2022/01/31 06:56:30;;;;;;;38.53;34.43;;;;;;;2.09;95.23;100246.97;5052955;28;20829;-45
2022/01/31 06:58:58;;;;;;;36.23;33.33;;;;;;;2.03;95.65;100245.75;5053920;28;20517;-44
2022/01/31 07:01:26;;;;;;;37.93;34.50;;;;;;;2.07;95.66;100241.00;5053927;28;20988;-43
2022/01/31 07:03:55;;;;;;;38.40;34.90;;;;;;;2.06;95.50;100242.81;5053961;28;20428;-43
2022/01/31 07:06:24;;;;;;;36.73;33.50;;;;;;;2.08;95.87;100238.22;5053207;28;20498;-43
2022/01/31 07:08:52;;;;;;;39.97;35.93;;;;;;;2.10;95.48;100245.94;5053658;28;20435;-44
2022/01/31 07:11:23;;;;;;;44.53;37.33;;;;;;;2.10;95.80;100241.53;5053880;28;21016;-43
2022/01/31 07:14:01;;;;;;;38.73;35.03;;;;;;;2.13;95.83;100235.13;5054381;28;20475;-46
2022/01/31 07:16:29;;;;;;;43.17;36.17;;;;;;;2.12;95.91;100238.75;5053328;28;20569;-44
2022/01/31 07:19:03;;;;;;;43.70;35.37;;;;;;;2.15;96.14;100230.56;5053266;28;20438;-44
2022/01/31 07:21:36;;;;;;;37.60;34.60;;;;;;;2.12;96.30;100234.28;5053702;28;20435;-44
2022/01/31 07:24:17;;;;;;;37.83;34.50;;;;;;;2.14;96.27;100240.25;5053563;28;20427;-43
2022/01/31 07:26:45;;;;;;;41.00;36.97;;;;;;;2.18;95.98;100246.03;5044525;28;20462;-46
2022/01/31 07:29:15;;;;;;;39.13;34.93;;;;;;;2.17;96.47;100253.09;5036908;28;20432;-48
2022/01/31 07:31:44;;;;;;;38.00;34.20;;;;;;;2.15;96.47;100249.75;5053316;28;20447;-43
2022/01/31 07:34:14;;;;;;;39.13;35.43;;;;;;;2.19;96.31;100242.41;5053482;28;20813;-45
2022/01/31 07:36:42;;;;;;;47.77;35.60;;;;;;;2.17;96.16;100242.56;5052792;28;20461;-44
2022/01/31 07:39:09;;;;;;;39.03;35.47;;;;;;;2.17;96.39;100249.63;5052988;28;20431;-43
2022/01/31 07:41:40;;;;;;;42.40;35.97;;;;;;;2.18;96.57;100244.19;5053081;28;20442;-43
2022/01/31 07:44:08;;;;;;;41.67;36.90;;;;;;;2.17;96.15;100244.38;5046334;28;20435;-46
2022/01/31 07:46:38;;;;;;;39.73;35.57;;;;;;;2.13;96.28;100235.94;5044313;28;20458;-43
2022/01/31 07:49:07;;;;;;;36.30;33.30;;;;;;;2.16;96.61;100245.34;5052979;28;20821;-43
2022/01/31 07:51:39;;;;;;;38.50;34.53;;;;;;;2.16;96.43;100240.91;5052974;28;20446;-45
2022/01/31 07:54:06;;;;;;;45.30;35.50;;;;;;;2.17;96.29;100244.38;5052736;28;20463;-45
2022/01/31 07:56:34;;;;;;;42.27;34.10;;;;;;;2.14;96.33;100249.94;5052558;28;20972;-43
2022/01/31 07:59:02;;;;;;;41.13;36.87;;;;;;;2.17;96.48;100258.34;5052614;28;20424;-45
2022/01/31 08:01:29;;;;;;;40.57;36.73;;;;;;;2.24;96.37;100266.44;5052927;28;20436;-43
2022/01/31 08:03:59;;;;;;;39.43;35.57;;;;;;;2.22;96.52;100263.13;5052686;28;20797;-45
2022/01/31 08:06:26;;;;;;;37.53;33.90;;;;;;;2.24;96.25;100255.91;5052173;28;20456;-44
2022/01/31 08:08:54;;;;;;;41.63;37.77;;;;;;;2.26;96.42;100258.41;5052271;28;20454;-47
2022/01/31 08:11:24;;;;;;;47.20;35.90;;;;;;;2.31;96.31;100267.47;5052410;28;21003;-44
2022/01/31 08:13:57;;;;;;;38.37;34.90;;;;;;;2.43;96.23;100263.59;5052574;28;20557;-49
2022/01/31 08:16:24;;;;;;;43.60;35.70;;;;;;;2.53;96.19;100266.94;5052173;28;20459;-43
2022/01/31 08:18:52;;;;;;;41.77;37.57;;;;;;;2.59;96.28;100268.97;5052166;28;20432;-43
2022/01/31 08:21:23;;;;;;;39.70;35.17;;;;;;;2.62;96.39;100266.00;5052141;28;20547;-44
2022/01/31 08:23:52;;;;;;;44.90;34.87;;;;;;;2.70;96.82;100266.03;5052621;28;20423;-44
2022/01/31 08:26:21;;;;;;;39.87;35.87;;;;;;;2.83;96.70;100268.25;5051802;28;20459;-43
2022/01/31 08:28:55;;;;;;;42.70;36.93;;;;;;;2.82;97.18;100263.13;5051972;28;20952;-45
2022/01/31 08:31:28;;;;;;;39.70;35.47;;;;;;;2.87;97.19;100256.38;5052630;28;20506;-44
2022/01/31 08:34:18;;;;;;;42.13;36.63;;;;;;;2.96;97.11;100255.44;5051911;28;20479;-44
2022/01/31 08:36:47;;;;;;;38.70;35.20;;;;;;;3.01;97.03;100254.97;5051771;28;20463;-44
2022/01/31 08:39:18;;;;;;;36.70;33.50;;;;;;;3.05;96.88;100256.28;5051906;28;20526;-46
2022/01/31 08:41:47;;;;;;;42.00;35.67;;;;;;;2.97;96.99;100254.47;5052084;28;20522;-45
2022/01/31 08:44:17;;;;;;;41.33;34.20;;;;;;;3.01;96.52;100263.72;5044783;28;20435;-46
2022/01/31 08:46:46;;;;;;;37.30;33.57;;;;;;;3.02;96.66;100265.34;5043279;28;20828;-43
2022/01/31 08:49:15;;;;;;;40.60;36.20;;;;;;;3.10;96.59;100264.56;5051774;28;20626;-44
2022/01/31 08:51:45;;;;;;;39.50;35.23;;;;;;;3.00;96.68;100264.69;5051912;28;20432;-49
2022/01/31 08:54:15;;;;;;;38.60;34.60;;;;;;;3.01;96.58;100266.34;5051743;28;20466;-46
2022/01/31 08:56:45;;;;;;;37.93;33.93;;;;;;;2.99;96.49;100270.91;5051186;28;20693;-43
2022/01/31 08:59:16;;;;;;;36.17;33.57;;;;;;;3.07;96.58;100262.25;5051641;28;20423;-43
2022/01/31 09:01:51;;;;;;;41.33;37.47;;;;;;;3.18;96.60;100269.84;5051853;28;20435;-43
2022/01/31 09:04:33;;;;;;;41.27;34.77;;;;;;;3.18;96.55;100269.84;5051779;28;20793;-45
2022/01/31 09:07:01;;;;;;;38.07;34.37;;;;;;;3.09;95.96;100271.63;5051062;28;20478;-44
2022/01/31 09:09:31;;;;;;;40.43;36.10;;;;;;;3.11;96.01;100279.34;5051305;28;20456;-45
2022/01/31 09:12:06;;;;;;;40.60;35.67;;;;;;;3.17;96.25;100269.00;5051578;28;21002;-45
2022/01/31 09:14:33;;;;;;;38.10;34.30;;;;;;;3.11;95.73;100267.00;5051680;28;20471;-45
2022/01/31 09:17:01;;;;;;;36.97;33.17;;;;;;;3.14;96.40;100274.59;5050986;28;20470;-43
2022/01/31 09:19:29;;;;;;;37.57;33.83;;;;;;;3.18;96.16;100280.38;5050741;28;20451;-44
2022/01/31 09:21:56;;;;;;;38.80;35.07;;;;;;;3.35;96.46;100279.44;5051814;28;20431;-46
2022/01/31 09:24:24;;;;;;;39.53;35.50;;;;;;;3.43;96.27;100290.00;5051435;28;20932;-44
2022/01/31 09:26:53;;;;;;;38.13;34.30;;;;;;;3.51;96.01;100294.47;5051110;28;20463;-47
2022/01/31 09:29:21;;;;;;;36.03;32.60;;;;;;;3.56;95.64;100292.16;5051148;28;20458;-45
2022/01/31 09:31:48;;;;;;;39.33;35.10;;;;;;;3.65;95.66;100286.72;5051225;28;20438;-48
2022/01/31 09:34:16;;;;;;;34.80;32.03;;;;;;;3.68;94.98;100281.13;5051131;28;20468;-45
2022/01/31 09:36:44;;;;;;;36.13;32.67;;;;;;;3.57;93.93;100291.19;5050750;28;20466;-43
2022/01/31 09:39:11;;;;;;;35.77;32.20;;;;;;;3.59;94.19;100287.38;5051007;28;20436;-44
2022/01/31 09:41:42;;;;;;;36.33;32.53;;;;;;;3.47;93.73;100282.56;5051382;28;20542;-45
2022/01/31 09:44:19;;;;;;;37.70;33.90;;;;;;;3.32;93.94;100280.56;5044388;28;20435;-48
2022/01/31 09:47:03;;;;;;;38.13;34.43;;;;;;;3.19;93.36;100277.59;5042232;28;20466;-44
2022/01/31 09:49:30;;;;;;;43.87;33.27;;;;;;;3.31;94.57;100271.03;5051166;28;20542;-47
2022/01/31 09:51:58;;;;;;;37.50;33.80;;;;;;;3.25;94.50;100281.41;5051240;28;20438;-43
2022/01/31 09:54:27;;;;;;;37.03;33.13;;;;;;;3.26;94.58;100297.03;5051157;28;21090;-43
2022/01/31 09:56:57;;;;;;;36.53;32.33;;;;;;;3.30;94.59;100297.53;5050576;28;20474;-43
2022/01/31 09:59:26;;;;;;;44.43;34.70;;;;;;;3.41;94.91;100302.50;5051113;28;20471;-44
2022/01/31 10:01:55;;;;;;;37.23;33.33;;;;;;;3.52;94.73;100304.84;5051203;28;20442;-49
2022/01/31 10:04:25;;;;;;;36.63;32.73;;;;;;;3.66;95.12;100306.84;5051210;28;20428;-47
2022/01/31 10:06:55;;;;;;;36.73;33.33;;;;;;;3.64;93.56;100315.91;5050581;28;20837;-43
2022/01/31 10:09:25;;;;;;;36.83;31.83;;;;;;;3.65;92.69;100322.81;5050780;28;20423;-49
2022/01/31 10:11:57;;;;;;;33.10;30.20;;;;;;;3.71;92.33;100332.72;5050781;28;20443;-44
2022/01/31 10:17:24;;;;;;;34.60;30.90;;;;;;;3.84;92.55;100347.09;5050155;28;20521;-43
2022/01/31 10:20:09;;;;;;;34.53;29.80;;;;;;;3.81;91.39;100351.88;5050680;28;20447;-44
2022/01/31 10:22:38;;;;;;;34.50;28.87;;;;;;;3.80;91.43;100350.22;5051030;28;20446;-43
2022/01/31 10:25:09;;;;;;;37.03;29.60;;;;;;;3.82;91.53;100343.78;5051040;28;20432;-45
2022/01/31 10:27:57;;;;;;;34.40;29.20;;;;;;;3.87;91.98;100346.78;5050123;28;20464;-46
2022/01/31 10:30:29;;;;;;;33.77;29.80;;;;;;;3.76;91.49;100344.44;5050977;28;20510;-49
2022/01/31 10:32:58;;;;;;;35.67;31.53;;;;;;;3.63;91.23;100354.63;5054917;28;20439;-44
2022/01/31 10:35:29;;;;;;;31.20;28.23;;;;;;;3.65;91.95;100365.84;5054500;28;20471;-45
2022/01/31 10:38:01;;;;;;;32.47;29.27;;;;;;;3.70;92.18;100374.06;5053829;28;20838;-46
2022/01/31 10:43:57;;;;;;;34.93;31.27;;;;;;;3.67;91.43;100374.44;5051803;28;20439;-44
2022/01/31 10:52:08;;;;;;;36.23;32.87;;;;;;;3.85;92.11;100390.94;5034474;28;20435;-46
2022/01/31 10:54:41;;;;;;;46.43;34.40;;;;;;;3.87;91.21;100393.41;5034210;28;20482;-49
2022/01/31 10:57:15;;;;;;;36.70;32.90;;;;;;;3.85;90.74;100406.75;5033562;28;20472;-45
2022/01/31 10:59:45;;;;;;;35.57;31.93;;;;;;;3.78;90.48;100405.78;5033783;28;20467;-44
2022/01/31 11:02:18;;;;;;;41.17;31.77;;;;;;;3.73;90.73;100402.75;5034187;28;20468;-43
2022/01/31 11:04:47;;;;;;;35.73;31.90;;;;;;;3.61;90.71;100412.00;5033974;28;20507;-45
2022/01/31 11:07:17;;;;;;;40.40;33.43;;;;;;;3.66;91.11;100419.41;5033092;28;20463;-44
2022/01/31 11:09:48;;;;;;;35.43;32.07;;;;;;;3.69;91.65;100422.56;5033721;28;20986;-43
2022/01/31 11:12:16;;;;;;;38.63;34.07;;;;;;;3.53;91.26;100422.47;5033721;28;20436;-43
2022/01/31 11:14:46;;;;;;;40.53;36.23;;;;;;;3.42;92.23;100425.41;5033844;28;20502;-46
2022/01/31 11:17:16;;;;;;;38.73;34.67;;;;;;;3.30;93.28;100424.88;5033032;28;20474;-43
2022/01/31 11:19:49;;;;;;;36.03;32.97;;;;;;;3.30;93.52;100432.78;5033758;28;20893;-48
2022/01/31 11:22:26;;;;;;;38.87;33.60;;;;;;;3.26;93.76;100436.69;5033665;28;20440;-45
2022/01/31 11:25:15;;;;;;;41.73;34.77;;;;;;;3.37;93.94;100440.06;5033595;28;20505;-44
2022/01/31 11:28:04;;;;;;;37.53;34.27;;;;;;;3.36;93.38;100449.75;5032848;28;20460;-43
2022/01/31 11:30:31;;;;;;;37.50;33.20;;;;;;;3.32;93.43;100458.97;5033930;28;20515;-45
2022/01/31 11:33:01;;;;;;;38.73;34.77;;;;;;;3.34;93.66;100459.66;5033218;28;20440;-44
2022/01/31 11:35:28;;;;;;;37.87;33.87;;;;;;;3.46;94.22;100461.03;5033560;28;20850;-46
2022/01/31 11:37:56;;;;;;;38.40;35.00;;;;;;;3.49;93.66;100465.97;5032716;28;20850;-43
2022/01/31 11:40:25;;;;;;;36.40;31.87;;;;;;;3.45;92.98;100467.28;5033421;28;20543;-50